HOURLY OBS INDEX

058

North Coast

BALLINA AIRPORT AWS

Site: 058198
Alt: 1.3m
2km E of BALLINA


  Time     Wind        Temp  DP   Baro     Rain since   Rain past  Vis(m), Cloud(base in m), Weather
  local        km/h                         9am  last   hr   10m    
Tue 15:00  ENE 19/ 24  27.5----  1009.2    0.0   0.0   0.0   0.0   10000 
Tue 15:30  NNE 19/ 24  28.2----  1008.6    0.0   0.0   0.0   0.0   10000 
Tue 15:30  NNE 19/ 24  28.2----  1008.6    0.0   0.0  ----   0.0   10000 
Tue 16:00   NE 20/ 28  26.7----  1008.5    0.0   0.0   0.0   0.0   10000 
Tue 16:00   NE 20/ 28  26.7----  1008.5    0.0   0.0  ----   0.0   10000 
Tue 16:30   NE 19/ 28  26.0----  1008.7    0.0   0.0   0.0   0.0   10000|OC3750 
Tue 17:00   NE 19/ 24  25.9----  1008.8    0.0   0.0   0.0   0.0   10000|SC2520 OC3450 
Tue 17:30   NE 20/ 28  25.9----  1009.1    0.0   0.0   0.0   0.0   10000|BR2940 OC3450 
Tue 18:00    N 17/ 24  25.6----  1009.0    0.0   0.0   0.0   0.0   10000|BR3000 
Tue 18:30  NNE 13/ 20  25.2----  1009.4    0.0   0.0   0.0   0.0   10000|SC2700 BR3300 
Tue 19:00  NNE 15/ 20  24.9----  1009.3    0.0   0.0   0.0   0.0   10000|SC2370 SC2700 SC3600 
Tue 19:30  NNE 11/ 15  24.8----  1009.8    0.0   0.0   0.0   0.0   10000|SC3300 
Tue 19:30  NNE 11/ 15  24.8----  1009.8    0.0   0.0  ----   0.0   10000|SC3300 
Tue 19:30  NNE 11/ 15  24.8----  1009.8    0.0   0.0  ----   0.0   10000|SC3300 
Tue 19:30  NNE 11/ 15  24.8----  1009.8    0.0   0.0  ----   0.0   10000|SC3300 
Tue 20:00   NE  2/  9  24.7----  1010.3    0.0   0.0   0.0   0.0   10000 
Tue 20:30  ENE  9/ 11  24.2----  1010.6    0.0   0.0   0.0   0.0   10000 

BYRON BAY (CAPE BYRON AWS)

Site: 058216
Alt: 95.0m
24km NNE of BALLINA


  Time     Wind        Temp  DP   Baro     Rain since   Rain past  Vis(m), Cloud(base in m), Weather
  local        km/h                         9am  last   hr   10m    
Tue 15:00   NE 17/ 20  29.2 21.4  1010.3    0.0   0.0   0.0   0.0   ----- 
Tue 15:30   NE 19/ 22  28.5 20.5  1010.0    0.0   0.0   0.0   0.0   ----- 
Tue 15:30   NE 19/ 22  28.5 20.5  1010.0    0.0   0.0  ----   0.0   ----- 
Tue 16:00    N 15/ 20  26.8 20.2  1009.7    0.0   0.0   0.0   0.0   ----- 
Tue 16:00    N 15/ 20  26.8 20.2  1009.7    0.0   0.0  ----   0.0   ----- 
Tue 16:30    N 15/ 22  25.8 20.6  1009.8    0.0   0.0   0.0   0.0   ----- 
Tue 17:00   NE 22/ 26  25.7 21.1  1009.6    0.0   0.0   0.0   0.0   ----- 
Tue 17:30   NE 22/ 26  25.4 20.9  1010.2    0.0   0.0   0.0   0.0   ----- 
Tue 18:00   NE 19/ 24  25.4 20.6  1010.5    0.0   0.0   0.0   0.0   ----- 
Tue 18:30  NNE 15/ 20  25.4 20.9  1010.5    0.0   0.0   0.0   0.0   ----- 
Tue 19:00    N 20/ 28  25.2 21.1  1010.5    0.0   0.0   0.0   0.0   ----- 
Tue 19:30    N 20/ 26  25.2 21.3  1010.7    0.0   0.0   0.0   0.0   ----- 
Tue 19:30    N 20/ 26  25.2 21.3  1010.7    0.0   0.0  ----   0.0   ----- 
Tue 19:30    N 20/ 26  25.2 21.3  1010.7    0.0   0.0  ----   0.0   ----- 
Tue 19:30    N 20/ 26  25.2 21.3  1010.7    0.0   0.0  ----   0.0   ----- 
Tue 20:00    N 19/ 28  25.1 21.2  1011.1    0.0   0.0   0.0   0.0   ----- 
Tue 20:30    N 19/ 26  25.1 21.6  1011.5    0.0   0.0   0.0   0.0   ----- 

CASINO AIRPORT AWS

Site: 058208
Alt: 20.9m
3km S of CASINO


  Time     Wind        Temp  DP   Baro     Rain since   Rain past  Vis(m), Cloud(base in m), Weather
  local        km/h                         9am  last   hr   10m    
Tue 15:00    E  9/ 13  30.9 14.1  1008.4    0.0   0.0   0.0   0.0   ----- 
Tue 15:30  ENE 13/ 17  32.4 14.5  1008.0    0.0   0.0   0.0   0.0   ----- 
Tue 15:30  ENE 13/ 17  32.4 14.5  1008.0    0.0   0.0  ----   0.0   ----- 
Tue 16:00  SSE 15/ 28  28.2 15.8  1008.0    0.0   0.0   0.0   0.0   ----- 
Tue 16:00  SSE 15/ 28  28.2 15.8  1008.0    0.0   0.0  ----   0.0   ----- 
Tue 16:30  ESE 15/ 20  29.2 15.7  1007.9    0.0   0.0   0.0   0.0   ----- 
Tue 17:00  ESE 13/ 17  28.4 17.3  1007.8    0.0   0.0   0.0   0.0   ----- 
Tue 17:30    E 11/ 17  28.4 17.3  1008.1    0.0   0.0   0.0   0.0   ----- 
Tue 18:00    E 13/ 19  28.3 16.9  1008.6    0.0   0.0   0.0   0.0   ----- 
Tue 18:30  ENE 13/ 17  27.4 19.7  1008.8    0.0   0.0   0.0   0.0   ----- 
Tue 19:00    E 11/ 15  26.5 20.1  1009.0    0.0   0.0   0.0   0.0   ----- 
Tue 19:30  SSE  9/ 17  25.7 20.3  1009.3    0.0   0.0   0.0   0.0   ----- 
Tue 19:30  SSE  9/ 17  25.7 20.3  1009.3    0.0   0.0  ----   0.0   ----- 
Tue 19:30  SSE  9/ 17  25.7 20.3  1009.3    0.0   0.0  ----   0.0   ----- 
Tue 19:30  SSE  9/ 17  25.7 20.3  1009.3    0.0   0.0  ----   0.0   ----- 
Tue 20:00   SE 13/ 17  25.3 20.5  1009.9    0.0   0.0   0.0   0.0   ----- 
Tue 20:30  SSE  9/ 13  24.8 20.5  1010.5    0.0   0.0   0.0   0.0   ----- 

EVANS HEAD RAAF BOMBING RANGE AWS

Site: 058212
Alt: 62.5m
41km SSW of BALLINA


  Time     Wind        Temp  DP   Baro     Rain since   Rain past  Vis(m), Cloud(base in m), Weather
  local        km/h                         9am  last   hr   10m    
Tue 15:00   NE 13/ 17  26.6 22.4  1009.0    0.0   0.0   0.0   0.0   ----- 
Tue 15:30  NNE 13/ 19  27.2 21.9  1008.6    0.0   0.0   0.0   0.0   ----- 
Tue 15:30  NNE 13/ 19  27.2 21.9  1008.6    0.0   0.0  ----   0.0   ----- 
Tue 16:00    N 13/ 22  26.0 21.4  1008.7    0.0   0.0   0.0   0.0   ----- 
Tue 16:00    N 13/ 22  26.0 21.4  1008.7    0.0   0.0  ----   0.0   ----- 
Tue 16:30    N 15/ 24  26.9 22.3  1008.4    0.0   0.0   0.0   0.0   ----- 
Tue 17:00    N 15/ 22  26.1 22.0  1008.4    0.0   0.0   0.0   0.0   ----- 
Tue 17:30  NNE 13/ 19  25.3 21.8  1008.8    0.0   0.0   0.0   0.0   ----- 
Tue 18:00  NNW 13/ 24  25.1 21.8  1009.8    0.0   0.0   0.0   0.0   ----- 
Tue 18:30    E 26/ 35  23.5 19.4  1009.7    0.0   0.0   0.0   0.0   ----- 
Tue 19:00  ENE 20/ 37  23.4 19.5  1009.9    0.0   0.0   0.0   0.0   ----- 
Tue 19:30  ENE 17/ 24  23.7 20.4  1010.1    0.0   0.0   0.0   0.0   ----- 
Tue 19:30  ENE 17/ 24  23.7 20.4  1010.1    0.0   0.0  ----   0.0   ----- 
Tue 19:30  ENE 17/ 24  23.7 20.4  1010.1    0.0   0.0  ----   0.0   ----- 
Tue 19:30  ENE 17/ 24  23.7 20.4  1010.1    0.0   0.0  ----   0.0   ----- 
Tue 20:00  ENE  9/ 15  23.9 19.8  1010.5    0.0   0.0   0.0   0.0   ----- 
Tue 20:30  SSE  9/ 11  23.7 20.6  1011.5    0.0   0.0   0.0   0.0   ----- 

GRAFTON AIRPORT AWS

Site: 058161
Alt: 25.1m
13km SE of GRAFTON


  Time     Wind        Temp  DP   Baro     Rain since   Rain past  Vis(m), Cloud(base in m), Weather
  local        km/h                         9am  last   hr   10m    
Tue 15:00   NE 11/ 17  30.3 15.6  1008.1    0.0   0.0   0.0   0.0   10000|SC3600 
Tue 15:30    E  9/ 15  30.5 15.4  1008.1    0.0   0.0   0.0   0.0   10000|SC2700 SC3600 
Tue 15:30    E  9/ 15  30.5 15.4  1008.1    0.0   0.0  ----   0.0   10000|SC2700 SC3600 
Tue 15:44    S 28/ 37  27.9 18.6  1008.3    0.0   0.0  ----   0.0   10000|SC1740 BR2400 
Tue 16:00    S 24/ 35  27.4 19.2  1008.2    0.0   0.0   0.0   0.0   10000|SC 960 SC1290 BR1800 
Tue 16:00    S 24/ 35  27.4 19.2  1008.2    0.0   0.0  ----   0.0   10000|SC 960 SC1290 BR1800 
Tue 16:27   SE 28/ 46  24.5 16.5  1008.5    0.0   0.0  ----   0.0   10000 
Tue 16:30   SE 30/ 43  24.3 16.3  1008.3    0.0   0.0   0.0   0.0   10000 
Tue 17:00  ESE 20/ 30  23.4 16.7  1009.5    0.0   0.0   0.0   0.0   10000|SC1470 BR3600 
Tue 17:30    E 17/ 28  23.1 16.2  1009.8    0.0   0.0   0.0   0.0   10000|SC1680 BR3000 
Tue 18:00  ESE  6/  9  23.1 15.7  1010.3    0.0   0.0   0.0   0.0   10000|SC1530 SC3000 
Tue 18:30  SSW 11/ 19  22.9 16.0  1010.6    0.0   0.0   0.0   0.0   10000|SC1890 BR2460 BR3000 
Tue 19:00  SSE 13/ 20  22.3 17.9  1011.0    0.0   0.0   0.0   0.0   10000|BR 570 BR2700 
Tue 19:30  SSE  7/ 15  22.0 18.2  1011.5    0.0   0.0   0.0   0.0   10000 
Tue 19:30  SSE  7/ 15  22.0 18.2  1011.5    0.0   0.0  ----   0.0   10000 
Tue 19:30  SSE  7/ 15  22.0 18.2  1011.5    0.0   0.0  ----   0.0   10000 
Tue 19:30  SSE  7/ 15  22.0 18.2  1011.5    0.0   0.0  ----   0.0   10000 
Tue 20:00    S  6/  7  21.5 18.3  1011.4    0.0   0.0   0.0   0.0   10000|SC3600 
Tue 20:30   SW  7/ 11  21.2 18.8  1012.3    0.0   0.0   0.0   0.0   10000 

GRAFTON RESEARCH STN

Site: 058077
Alt: 25.0m
7km NNE of GRAFTON


  Time     Wind        Temp  DP   Baro     Rain since   Rain past  Vis(m), Cloud(base in m), Weather
  local        km/h                         9am  last   hr   10m    
Tue 15:00  ENE 13/ 20  30.8 18.8  ------    0.0   0.0   0.0   0.0   ----- 
Tue 15:30   NE  9/ 20  30.5 18.2  ------    0.0   0.0   0.0   0.0   ----- 
Tue 15:30   NE  9/ 20  30.5 18.2  ------    0.0   0.0  ----   0.0   ----- 
Tue 16:00  NNE  9/ 15  30.3 18.4  ------    0.0   0.0   0.0   0.0   ----- 
Tue 16:00  NNE  9/ 15  30.3 18.4  ------    0.0   0.0  ----   0.0   ----- 
Tue 16:30  SSE 26/ 32  27.4 20.7  ------    0.0   0.0   0.0   0.0   ----- 
Tue 17:00  ESE 28/ 39  23.5 17.3  ------    0.0   0.0   0.0   0.0   ----- 
Tue 17:30    E  9/ 15  21.5 18.1  ------    0.0   0.0   0.0   0.0   ----- 
Tue 18:00    E 13/ 17  21.6 17.4  ------    0.0   0.0   0.0   0.0   ----- 
Tue 18:30    S 11/ 17  20.5 18.1  ------    0.2   0.2   0.2   0.0   ----- 
Tue 19:00   SW  7/  9  20.9 18.3  ------    0.2   0.0   0.2   0.0   ----- 
Tue 19:30    S  9/ 13  21.0 18.8  ------    0.4   0.2   0.2   0.0   ----- 
Tue 19:30    S  9/ 13  21.0 18.8  ------    0.4   0.0  ----   0.0   ----- 
Tue 19:30    S  9/ 13  21.0 18.8  ------    0.4   0.0  ----   0.0   ----- 
Tue 19:30    S  9/ 13  21.0 18.8  ------    0.4   0.0  ----   0.0   ----- 
Tue 20:00    S  9/ 13  21.6 19.0  ------    0.4   0.0   0.2   0.0   ----- 
Tue 20:30  WSW  7/  9  21.2 19.1  ------    0.4   0.0   0.0   0.0   ----- 

LISMORE AIRPORT AWS

Site: 058214
Alt: 9.2m
3km SW of LISMORE


  Time     Wind        Temp  DP   Baro     Rain since   Rain past  Vis(m), Cloud(base in m), Weather
  local        km/h                         9am  last   hr   10m    
Tue 15:00    C  0/  9  31.9 16.6  1008.4    0.0   0.0   0.0   0.0   10000 
Tue 15:30   NE  7/ 13  31.1 17.0  1008.0    0.0   0.0   0.0   0.0   10000 
Tue 15:30   NE  7/ 13  31.1 17.0  1008.0    0.0   0.0  ----   0.0   10000 
Tue 16:00    E  7/ 15  30.8 14.4  1007.8    0.0   0.0   0.0   0.0   10000|BR3300 BR3750 
Tue 16:00    E  7/ 15  30.8 14.4  1007.8    0.0   0.0  ----   0.0   10000|BR3300 BR3750 
Tue 16:30  ESE 13/ 20  29.4 19.1  1007.9    0.0   0.0   0.0   0.0   10000|BR2670 BR3150 OC3750 
Tue 17:00    E 13/ 17  29.1 21.3  1007.9    0.0   0.0   0.0   0.0   10000|SC2700 
Tue 17:30  ENE 15/ 20  28.1 20.9  1008.3    0.0   0.0   0.0   0.0   10000|SC3600 
Tue 18:00  ENE 19/ 28  26.9 20.7  1008.6    0.0   0.0   0.0   0.0   10000|SC2940 BR3600 
Tue 18:30   NE 20/ 28  26.2 20.8  1008.7    0.0   0.0   0.0   0.0   10000 
Tue 19:00  NNE 17/ 20  25.6 20.8  1008.9    0.0   0.0   0.0   0.0   10000|BR3750 
Tue 19:30   NE 11/ 20  25.4 20.2  1009.2    0.0   0.0   0.0   0.0   10000 
Tue 19:30   NE 11/ 20  25.4 20.2  1009.2    0.0   0.0  ----   0.0   10000 
Tue 19:30   NE 11/ 20  25.4 20.2  1009.2    0.0   0.0  ----   0.0   10000 
Tue 19:30   NE 11/ 20  25.4 20.2  1009.2    0.0   0.0  ----   0.0   10000 
Tue 20:00  ESE  7/ 11  25.1 19.9  1009.7    0.0   0.0   0.0   0.0   10000 
Tue 20:30    C  0/  7  25.2 19.8  1010.2    0.0   0.0   0.0   0.0   10000|BR3300 

YAMBA PILOT STATION

Site: 058012
Alt: 27.4m
50km NE of GRAFTON


  Time     Wind        Temp  DP   Baro     Rain since   Rain past  Vis(m), Cloud(base in m), Weather
  local        km/h                         9am  last   hr   10m    
Tue 15:00  ENE 13/ 20  28.1 23.2  1008.9    0.0   0.0   0.0   0.0   ----- 
Tue 15:30  ENE 11/ 20  28.2 23.1  1008.4    0.0   0.0   0.0   0.0   ----- 
Tue 15:30  ENE 11/ 20  28.2 23.1  1008.4    0.0   0.0  ----   0.0   ----- 
Tue 16:00  ENE 13/ 20  27.7 23.3  1008.3    0.0   0.0   0.0   0.0   ----- 
Tue 16:00  ENE 13/ 20  27.7 23.3  1008.3    0.0   0.0  ----   0.0   ----- 
Tue 16:30  NNE  9/ 15  28.0 21.8  1008.7    0.0   0.0   0.0   0.0   ----- 
Tue 17:00  NNE 11/ 19  26.9 22.9  1008.4    0.0   0.0   0.0   0.0   ----- 
Tue 17:20  SSE 28/ 37  24.5 21.6  1009.7    0.0   0.0  ----   0.0   ----- 
Tue 17:30  WSW 19/ 30  22.2 21.7  1010.7    4.2   4.2   4.2   4.2   ----- 
Tue 18:00  ESE 17/ 24  21.8 21.5  1009.5   13.6   9.4  13.6   1.2   ----- 
Tue 18:30  ESE 13/ 20  23.5 23.2  1009.7   13.6   0.0   9.4   0.0   ----- 
Tue 19:00  ESE 13/ 20  24.1 23.8  1010.0   13.6   0.0   0.0   0.0   ----- 
Tue 19:30  ESE 13/ 20  24.6 24.3  1010.1   13.6   0.0   0.0   0.0   ----- 
Tue 19:30  ESE 13/ 20  24.6 24.3  1010.1   13.6   0.0  ----   0.0   ----- 
Tue 19:30  ESE 13/ 20  24.6 24.3  1010.1   13.6   0.0  ----   0.0   ----- 
Tue 19:30  ESE 13/ 20  24.6 24.3  1010.1   13.6   0.0  ----   0.0   ----- 
Tue 20:00    C  0/  6  24.7 24.4  1011.0   13.6   0.0   0.0   0.0   ----- 
Tue 20:30    W  9/ 15  22.9 22.6  1011.6   13.6   0.0   0.0   0.0   -----